This is the latest recevied weather packets stored in our database for station/object KD4EG. If no packets are shown the sender has not sent any weather packets the latest 1 day(s).
| Time | Temp. | Humidity | Pressure | Rain* | Wind** | Luminosity | Snow |
|---|---|---|---|---|---|---|---|
| 1778030443 | 19.44° C | 54% | 1014.5 hPa | 0 mm | - | 0 W/m² | - |
| 1778030141 | 20° C | 53% | 1014.5 hPa | 0 mm | - | 0 W/m² | - |
| 1778029531 | 20° C | 52% | 1014.4 hPa | 0 mm | - | 0 W/m² | - |
| 1778029227 | 20° C | 52% | 1014.4 hPa | 0 mm | - | 0 W/m² | - |
| 1778028924 | 20° C | 51% | 1014.6 hPa | 0 mm | - | 0 W/m² | - |
| 1778028620 | 20.56° C | 50% | 1014.4 hPa | 0 mm | - | 0 W/m² | - |
| 1778028318 | 21.11° C | 48% | 1014.3 hPa | 0 mm | - | 0 W/m² | - |
| 1778028014 | 22.22° C | 45% | 1014.2 hPa | 0 mm | - | 0 W/m² | - |
| 1778027103 | 22.22° C | 43% | 1014 hPa | 0 mm | - | 0 W/m² | - |
| 1778026495 | 22.78° C | 42% | 1014.3 hPa | 0 mm | - | 1 W/m² | - |
| 1778025890 | 22.78° C | 40% | 1014.1 hPa | 0 mm | - | 6 W/m² | - |
| 1778020438 | 25.56° C | 34% | 1013.6 hPa | 0 mm | - | 63 W/m² | - |
| 1778020134 | 25.56° C | 33% | 1013.8 hPa | 0 mm | - | 125 W/m² | - |
| 1778018618 | 25° C | 34% | 1013.9 hPa | 0 mm | - | 58 W/m² | - |
| 1778018316 | 25.56° C | 34% | 1013.7 hPa | 0 mm | - | 131 W/m² | - |
| 1778018014 | 25.56° C | 32% | 1013.8 hPa | 0 mm | - | 193 W/m² | - |
| 1778016804 | 25.56° C | 35% | 1013.6 hPa | 0 mm | - | 337 W/m² | - |
| 1778014984 | 25.56° C | 32% | 1013.6 hPa | 0 mm | - | 398 W/m² | - |
| 1778014681 | 26.67° C | 32% | 1013.6 hPa | 0 mm | - | 308 W/m² | - |
| 1778013167 | 26.67° C | 27% | 1013.8 hPa | 0 mm | - | 263 W/m² | - |
| 1778012863 | 27.22° C | 26% | 1013.9 hPa | 0 mm | - | 324 W/m² | - |
| 1778012256 | 27.22° C | 27% | 1013.8 hPa | 0 mm | - | 451 W/m² | - |
| 1778010742 | 27.22° C | 27% | 1014.1 hPa | 0 mm | - | 439 W/m² | - |
| 1778010135 | 27.22° C | 25% | 1014.2 hPa | 0 mm | - | 560 W/m² | - |
| 1778007413 | 26.67° C | 30% | 1014 hPa | 0 mm | - | 526 W/m² | - |
* Rain latest hour (hover to see other rain measurements)
** Current wind speed in m/s (hover to see current wind gust speed)